createdAt,value
2023-02-09T00:00:51.923Z,17.63
2023-02-09T00:05:56.714Z,17.85
2023-02-09T00:11:02.474Z,20.52
2023-02-09T00:16:10.414Z,19.65
2023-02-09T00:21:15.793Z,18.05
2023-02-09T00:26:20.645Z,15.98
2023-02-09T00:47:18.959Z,16.20
2023-02-09T00:52:23.972Z,15.65
2023-02-09T00:57:28.705Z,15.13
2023-02-09T01:02:36.210Z,14.68
2023-02-09T01:07:40.894Z,14.00
2023-02-09T01:12:46.265Z,13.82
2023-02-09T01:17:53.717Z,15.30
2023-02-09T01:22:58.292Z,14.35
2023-02-09T01:28:02.961Z,12.52
2023-02-09T01:33:10.321Z,12.80
2023-02-09T01:38:14.938Z,14.10
2023-02-09T01:43:19.705Z,16.05
2023-02-09T01:48:28.190Z,13.75
2023-02-09T01:53:32.860Z,11.15
2023-02-09T01:58:37.839Z,15.00
2023-02-09T02:03:45.214Z,12.73
2023-02-09T02:08:52.137Z,12.85
2023-02-09T02:13:56.792Z,22.55
2023-02-09T02:19:18.082Z,18.65
2023-02-09T02:24:41.264Z,14.00
2023-02-09T02:30:06.997Z,11.00
2023-02-09T02:35:19.215Z,9.38
2023-02-09T02:40:29.521Z,11.75
2023-02-09T02:50:45.098Z,13.18
2023-02-09T02:55:51.025Z,12.38
2023-02-09T03:00:57.656Z,11.65
2023-02-09T03:06:06.655Z,10.52
2023-02-09T03:11:13.255Z,9.60
2023-02-09T03:16:23.791Z,9.57
2023-02-09T03:21:35.080Z,10.13
2023-02-09T03:26:42.516Z,10.30
2023-02-09T03:31:47.840Z,10.23
2023-02-09T03:36:58.413Z,9.85
2023-02-09T03:42:03.117Z,14.23
2023-02-09T03:47:08.536Z,11.93
2023-02-09T03:52:16.853Z,9.55
2023-02-09T03:57:21.593Z,10.70
2023-02-09T04:02:26.272Z,9.43
2023-02-09T04:07:33.757Z,9.48
2023-02-09T04:12:38.469Z,9.25
2023-02-09T04:17:43.152Z,9.02
2023-02-09T04:22:50.345Z,9.70
2023-02-09T04:27:55.068Z,9.85
2023-02-09T04:32:59.772Z,10.57
2023-02-09T04:38:07.161Z,11.27
2023-02-09T04:43:11.820Z,9.77
2023-02-09T04:48:17.445Z,9.77
2023-02-09T04:53:29.725Z,12.70
2023-02-09T04:58:46.675Z,10.10
2023-02-09T05:03:51.641Z,11.98
2023-02-09T05:08:58.920Z,12.13
2023-02-09T05:14:03.583Z,10.60
2023-02-09T05:19:08.235Z,10.52
2023-02-09T05:24:15.441Z,11.95
2023-02-09T05:29:22.011Z,10.68
2023-02-09T05:34:27.165Z,11.13
2023-02-09T05:39:34.640Z,17.38
2023-02-09T05:44:39.356Z,19.45
2023-02-09T05:49:44.251Z,22.10
2023-02-09T05:54:52.352Z,21.75
2023-02-09T05:59:57.048Z,13.35
2023-02-09T06:05:06.171Z,13.30
2023-02-09T06:10:19.629Z,11.80
2023-02-09T06:15:24.382Z,11.55
2023-02-09T06:20:29.153Z,10.32
2023-02-09T06:25:36.677Z,12.73
2023-02-09T06:30:41.589Z,25.42
2023-02-09T06:35:46.474Z,62.40
2023-02-09T06:40:53.983Z,47.55
2023-02-09T06:45:58.777Z,17.60
2023-02-09T06:51:03.564Z,14.88
2023-02-09T06:56:11.256Z,12.82
2023-02-09T07:01:20.215Z,12.90
2023-02-09T07:06:24.883Z,12.10
2023-02-09T07:11:32.361Z,11.50
2023-02-09T07:16:37.015Z,14.02
2023-02-09T07:21:41.758Z,13.05
2023-02-09T07:26:49.155Z,17.08
2023-02-09T07:31:53.876Z,12.27
2023-02-09T07:36:58.698Z,13.07
2023-02-09T07:42:06.222Z,13.05
2023-02-09T07:47:11.114Z,12.38
2023-02-09T07:52:15.846Z,12.98
2023-02-09T07:57:23.247Z,14.02
2023-02-09T08:02:29.989Z,13.30
2023-02-09T08:07:34.807Z,14.18
2023-02-09T08:12:55.016Z,11.23
2023-02-09T08:18:02.336Z,11.43
2023-02-09T08:23:10.083Z,16.30
2023-02-09T08:28:17.770Z,11.95
2023-02-09T08:33:22.559Z,10.77
2023-02-09T08:38:27.420Z,10.05
2023-02-09T08:43:35.940Z,9.23
2023-02-09T08:48:41.633Z,7.88
2023-02-09T08:53:52.395Z,8.27
2023-02-09T08:58:59.862Z,9.48
2023-02-09T09:04:04.633Z,8.18
2023-02-09T09:09:09.415Z,9.57
2023-02-09T09:14:16.711Z,6.60
2023-02-09T09:19:21.425Z,7.05
2023-02-09T09:24:28.577Z,6.65
2023-02-09T09:29:37.119Z,7.22
2023-02-09T09:34:41.819Z,7.20
2023-02-09T09:39:46.555Z,7.57
2023-02-09T09:44:54.346Z,6.97
2023-02-09T09:49:59.371Z,6.65
2023-02-09T09:55:04.616Z,6.63
2023-02-09T10:00:18.749Z,5.80
2023-02-09T10:05:24.560Z,5.72
2023-02-09T10:10:35.264Z,5.25
2023-02-09T10:15:42.879Z,6.40
2023-02-09T10:20:49.280Z,5.00
2023-02-09T10:26:04.758Z,5.57
2023-02-09T10:31:18.307Z,6.30
2023-02-09T10:36:28.013Z,5.05
2023-02-09T10:41:33.682Z,6.80
2023-02-09T10:46:41.853Z,5.80
2023-02-09T10:51:46.863Z,6.80
2023-02-09T10:56:52.568Z,11.70
2023-02-09T11:02:02.045Z,5.78
2023-02-09T11:07:09.080Z,6.97
2023-02-09T11:12:14.375Z,8.13
2023-02-09T11:17:25.003Z,7.55
2023-02-09T11:22:38.513Z,6.07
2023-02-09T11:27:54.742Z,5.63
2023-02-09T11:33:05.906Z,5.40
2023-02-09T11:38:15.976Z,5.35
2023-02-09T11:43:23.086Z,7.15
2023-02-09T11:48:31.500Z,5.47
2023-02-09T11:53:39.725Z,4.80
2023-02-09T11:58:52.453Z,8.25
2023-02-09T12:04:04.276Z,8.25
2023-02-09T12:09:19.104Z,5.00
2023-02-09T12:14:27.255Z,5.75
2023-02-09T12:19:38.316Z,5.75
2023-02-09T12:24:43.616Z,6.38
2023-02-09T12:29:48.297Z,6.10
2023-02-09T12:34:57.228Z,7.53
2023-02-09T12:40:07.328Z,7.15
2023-02-09T12:45:26.851Z,6.00
2023-02-09T12:50:47.614Z,6.55
2023-02-09T13:00:58.180Z,5.10
2023-02-09T13:06:09.432Z,5.13
2023-02-09T13:11:21.583Z,6.40
2023-02-09T13:16:47.194Z,5.05
2023-02-09T13:22:00.843Z,6.00
2023-02-09T13:27:08.465Z,7.22
2023-02-09T13:32:20.566Z,8.13
2023-02-09T13:37:31.442Z,6.80
2023-02-09T13:42:39.038Z,6.80
2023-02-09T13:47:45.438Z,7.75
2023-02-09T13:52:53.752Z,8.15
2023-02-09T13:58:00.752Z,5.22
2023-02-09T14:03:12.494Z,6.50
2023-02-09T14:08:22.440Z,7.13
2023-02-09T14:13:30.171Z,6.35
2023-02-09T14:18:36.462Z,5.65
2023-02-09T14:23:43.934Z,5.40
2023-02-09T14:28:50.431Z,5.78
2023-02-09T14:33:56.895Z,5.90
2023-02-09T14:39:13.883Z,5.25
2023-02-09T14:44:22.320Z,6.30
2023-02-09T14:49:27.251Z,6.95
2023-02-09T14:54:36.135Z,5.60
2023-02-09T14:59:40.812Z,6.18
2023-02-09T15:04:45.715Z,7.88
2023-02-09T15:09:53.523Z,6.85
2023-02-09T15:15:01.116Z,6.25
2023-02-09T15:20:05.824Z,6.40
2023-02-09T15:25:15.872Z,6.63
2023-02-09T15:30:21.782Z,6.38
2023-02-09T15:35:28.134Z,5.70
2023-02-09T15:40:49.194Z,7.28
2023-02-09T15:46:06.343Z,7.35
2023-02-09T15:51:11.268Z,7.47
2023-02-09T15:56:19.183Z,8.55
2023-02-09T16:01:24.078Z,7.53
2023-02-09T16:06:28.896Z,6.80
2023-02-09T16:11:40.840Z,8.18
2023-02-09T16:16:46.758Z,8.48
2023-02-09T16:21:53.250Z,9.45
2023-02-09T16:27:00.649Z,10.13
2023-02-09T16:32:05.382Z,8.27
2023-02-09T16:37:10.172Z,8.05
2023-02-09T16:42:18.675Z,17.23
2023-02-09T16:47:25.474Z,17.63
2023-02-09T16:52:30.788Z,9.98
2023-02-09T16:57:38.161Z,10.27
2023-02-09T17:02:45.221Z,9.73
2023-02-09T17:07:54.902Z,8.75
2023-02-09T17:13:04.935Z,8.93
2023-02-09T17:18:11.026Z,8.32
2023-02-09T17:23:17.467Z,9.38
2023-02-09T17:28:28.044Z,13.88
2023-02-09T17:33:34.006Z,16.85
2023-02-09T17:38:41.129Z,22.98
2023-02-09T17:43:49.306Z,19.33
2023-02-09T17:48:54.057Z,19.60
2023-02-09T17:53:58.820Z,17.70
2023-02-09T17:59:08.489Z,18.30
2023-02-09T18:04:18.694Z,16.70
2023-02-09T18:09:23.525Z,13.32
2023-02-09T18:14:31.513Z,12.35
2023-02-09T18:19:36.788Z,13.80
2023-02-09T18:24:42.002Z,13.55
2023-02-09T18:29:49.497Z,13.90
2023-02-09T18:34:54.561Z,14.50
2023-02-09T18:39:59.272Z,12.02
2023-02-09T18:45:06.726Z,13.82
2023-02-09T18:50:12.021Z,11.25
2023-02-09T18:55:16.721Z,10.80
2023-02-09T19:00:24.678Z,12.43
2023-02-09T19:05:30.536Z,10.85
2023-02-09T19:10:36.218Z,21.15
2023-02-09T19:15:43.996Z,13.15
2023-02-09T19:20:49.095Z,11.32
2023-02-09T19:26:02.916Z,11.95
2023-02-09T19:31:13.080Z,14.55
2023-02-09T19:36:17.863Z,17.73
2023-02-09T19:41:23.837Z,14.57
2023-02-09T19:46:31.546Z,19.20
2023-02-09T19:51:36.381Z,13.80
2023-02-09T19:56:41.116Z,13.40
2023-02-09T20:01:48.603Z,13.93
2023-02-09T20:06:53.333Z,13.50
2023-02-09T20:11:58.041Z,13.85
2023-02-09T20:17:05.489Z,14.35
2023-02-09T20:22:10.247Z,12.85
2023-02-09T20:27:15.106Z,15.32
2023-02-09T20:32:22.443Z,18.17
2023-02-09T20:37:28.510Z,16.92
2023-02-09T20:42:45.598Z,19.55
2023-02-09T20:47:53.458Z,16.77
2023-02-09T20:52:58.763Z,15.88
2023-02-09T20:58:03.534Z,12.70
2023-02-09T21:03:11.072Z,12.48
2023-02-09T21:08:16.419Z,13.60
2023-02-09T21:13:21.241Z,15.45
2023-02-09T21:18:28.813Z,11.10
2023-02-09T21:23:33.641Z,12.13
2023-02-09T21:28:38.838Z,12.77
2023-02-09T21:33:46.210Z,11.80
2023-02-09T21:38:51.046Z,12.25
2023-02-09T21:43:55.833Z,14.15
2023-02-09T21:49:03.095Z,11.40
2023-02-09T21:54:07.894Z,10.05
2023-02-09T21:59:13.226Z,9.30
2023-02-09T22:04:20.655Z,9.65
2023-02-09T22:09:25.518Z,8.40
2023-02-09T22:14:30.328Z,7.80
2023-02-09T22:19:41.694Z,8.90
2023-02-09T22:24:46.477Z,19.88
2023-02-09T22:29:51.211Z,9.57
2023-02-09T22:34:58.618Z,9.25
2023-02-09T22:40:03.465Z,9.13
2023-02-09T22:45:08.783Z,8.98
2023-02-09T22:50:16.182Z,12.90
2023-02-09T22:55:21.060Z,10.95
2023-02-09T23:00:25.747Z,13.02
2023-02-09T23:05:33.225Z,11.30
2023-02-09T23:10:37.953Z,11.48
2023-02-09T23:15:42.673Z,10.02
2023-02-09T23:20:50.023Z,8.43
2023-02-09T23:31:06.010Z,8.52
2023-02-09T23:36:15.235Z,7.57
2023-02-09T23:41:20.744Z,7.43
2023-02-09T23:46:28.289Z,7.10
2023-02-09T23:51:36.806Z,6.38
2023-02-09T23:56:41.961Z,9.70
